Estevan Airport
CYEN : now visible

Airfield :











YOU CAN JOIN US ON...

 
LOGIN :

Register | Disclaimer

   EN    FR    IT 

 









Legend :    VFR   Marginal VFR   IFR   Intensive IFR   Very Intensive IFR
Visi :
Ceiling :
>= 8 km
>= 3000ft
5 to 8 km
1000 to 3000 ft
1500m to 5 km
500 to 1000 ft
800 to 1500m
200 to 500 ft
< 800m
< 200 ft
Symbols :   Thunderstorms  Fog  Heavy snow  Heavy precipitations  Wind > 20 kt






- Airport Elevation : 1905 ft
- IATA code : YEN


CYEN - Estevan

CURRENT METAR :
  • 250717Z AUTO 11009KT 5SM BR BKN200 M08/M09 A2982 RMK SLP138

EXPIRED METARs :
  • 250700Z AUTO 11008KT 6SM BR SCT180 OVC200 M08/M09 A2983 RMK SLP140
  • 250600Z AUTO 11009KT 6SM BR BKN190 OVC210 M08/M09 A2984 RMK SLP145
  • 250535Z AUTO 11010KT 6SM BR SCT180 OVC200 M08/M09 A2984 RMK SLP145
  • 250522Z AUTO 11010KT 5SM BR BKN200 BKN220 M08/M09 A2984 RMK SLP145
  • 250500Z AUTO 11009KT 6SM BR SCT190 BKN210 M08/M09 A2984 RMK SLP145

Expired Forecast.



MET'MAP, your aeronautical weather chart ! - Copyright ORBIFLY December 2007 - Disclaimer

ORBIFLY MET'MAP TEAM :

Programming & Development : Alexandra Zaïnal
Concept & original design : Baudouin d'Aumeries
Assistance for programming : Marc-Olivier Méhu
Technical & hardware support : Manuel Goepfert

Contact : metmap@orbifly.com




SOURCES & CREDITS :

   NOAA       Earth
Advisory